Íslenskir flugvellir

Veldu flugvelli í þeirri röð sem þeir eiga að birtast og styddu á hnappinn

Uppfært síðast 24.08.2019 - kl. 09:44

SIGMET síðustu 6 klst.

Engin SIGMET skeyti bárust síðustu 6 klst.

Egilsstaðir

METAR síðustu 3 klst

TímiSkeyti
2019-08-24 09.00METAR BIEG 240900Z 01013KT 4000 BR OVC003 09/08 Q1010 RMK WIND GAGNHEIDI 05023KT
2019-08-24 08.00METAR BIEG 240800Z 01010KT 9000 -DZ OVC003 09/08 Q1011 RMK WIND GAGNHEIDI 06016KT
2019-08-24 07.00METAR BIEG 240700Z 01010KT 0700 DZ FG VV001 08/08 Q1011 RMK WIND GAGNHEIDI 06017KT

TAF

TAFBIEG2019-08-24 07.58Z24090936010KT 0700 FG OVC003 TX11/2415Z TN06/2505Z BECMG 2409/2411 8000 -RA FEW008 BKN013 OVC020 TEMPO 2410/2418 3000 RADZ BR BKN008 OVC015 BECMG 2421/2500 22007KT 9999 NSW FEW017 SCT025 BKN035

Allur vindur er réttvísandi bæði í Metar og frá sjálfvirkum veðurstöðvum




Aðrir tengdir vefir



Þetta vefsvæði byggir á Eplica